sensor_id;sensor_type;location;lat;lon;timestamp;temperature;humidity
49413;DHT22;35493;50.276;9.372;2022-11-04T00:02:01;11.20;90.60
49413;DHT22;35493;50.276;9.372;2022-11-04T00:04:28;11.20;90.40
49413;DHT22;35493;50.276;9.372;2022-11-04T00:06:57;11.20;90.70
49413;DHT22;35493;50.276;9.372;2022-11-04T00:09:25;11.30;91.00
49413;DHT22;35493;50.276;9.372;2022-11-04T00:11:53;11.30;90.80
49413;DHT22;35493;50.276;9.372;2022-11-04T00:14:44;11.30;90.70
49413;DHT22;35493;50.276;9.372;2022-11-04T00:17:12;11.30;90.70
49413;DHT22;35493;50.276;9.372;2022-11-04T00:19:44;11.40;90.60
49413;DHT22;35493;50.276;9.372;2022-11-04T00:22:30;11.40;91.00
49413;DHT22;35493;50.276;9.372;2022-11-04T00:25:15;11.40;90.90
49413;DHT22;35493;50.276;9.372;2022-11-04T00:28:04;11.40;90.80
49413;DHT22;35493;50.276;9.372;2022-11-04T00:30:52;11.40;90.80
49413;DHT22;35493;50.276;9.372;2022-11-04T00:33:19;11.40;90.90
49413;DHT22;35493;50.276;9.372;2022-11-04T00:35:53;11.40;90.90
49413;DHT22;35493;50.276;9.372;2022-11-04T00:38:21;11.40;90.90
49413;DHT22;35493;50.276;9.372;2022-11-04T00:40:49;11.40;90.70
49413;DHT22;35493;50.276;9.372;2022-11-04T00:43:16;11.40;90.80
49413;DHT22;35493;50.276;9.372;2022-11-04T00:45:43;11.40;90.50
49413;DHT22;35493;50.276;9.372;2022-11-04T00:48:10;11.40;90.80
49413;DHT22;35493;50.276;9.372;2022-11-04T00:50:37;11.40;90.80
49413;DHT22;35493;50.276;9.372;2022-11-04T00:53:04;11.40;90.60
49413;DHT22;35493;50.276;9.372;2022-11-04T00:55:32;11.40;90.70
49413;DHT22;35493;50.276;9.372;2022-11-04T00:57:59;11.40;90.60
49413;DHT22;35493;50.276;9.372;2022-11-04T01:00:28;11.40;90.60
49413;DHT22;35493;50.276;9.372;2022-11-04T01:02:55;11.40;90.30
49413;DHT22;35493;50.276;9.372;2022-11-04T01:05:24;11.40;90.40
49413;DHT22;35493;50.276;9.372;2022-11-04T01:07:51;11.40;90.60
49413;DHT22;35493;50.276;9.372;2022-11-04T01:10:18;11.50;90.30
49413;DHT22;35493;50.276;9.372;2022-11-04T01:12:47;11.40;90.40
49413;DHT22;35493;50.276;9.372;2022-11-04T01:15:14;11.40;90.50
49413;DHT22;35493;50.276;9.372;2022-11-04T01:17:41;11.40;90.50
49413;DHT22;35493;50.276;9.372;2022-11-04T01:20:09;11.40;90.50
49413;DHT22;35493;50.276;9.372;2022-11-04T01:22:37;11.40;90.40
49413;DHT22;35493;50.276;9.372;2022-11-04T01:25:07;11.40;90.40
49413;DHT22;35493;50.276;9.372;2022-11-04T01:27:34;11.40;90.20
49413;DHT22;35493;50.276;9.372;2022-11-04T01:30:09;11.40;90.40
49413;DHT22;35493;50.276;9.372;2022-11-04T01:32:36;11.40;90.50
49413;DHT22;35493;50.276;9.372;2022-11-04T01:35:04;11.40;90.40
49413;DHT22;35493;50.276;9.372;2022-11-04T01:37:31;11.40;90.40
49413;DHT22;35493;50.276;9.372;2022-11-04T01:39:58;11.40;90.40
49413;DHT22;35493;50.276;9.372;2022-11-04T01:42:25;11.40;90.40
49413;DHT22;35493;50.276;9.372;2022-11-04T01:44:54;11.40;90.20
49413;DHT22;35493;50.276;9.372;2022-11-04T01:47:27;11.40;90.30
49413;DHT22;35493;50.276;9.372;2022-11-04T01:49:59;11.40;90.40
49413;DHT22;35493;50.276;9.372;2022-11-04T01:52:33;11.40;90.20
49413;DHT22;35493;50.276;9.372;2022-11-04T01:55:07;11.40;90.40
49413;DHT22;35493;50.276;9.372;2022-11-04T01:57:38;11.40;90.30
49413;DHT22;35493;50.276;9.372;2022-11-04T02:00:07;11.40;90.10
49413;DHT22;35493;50.276;9.372;2022-11-04T02:02:47;11.40;90.20
49413;DHT22;35493;50.276;9.372;2022-11-04T02:05:15;11.40;90.10
49413;DHT22;35493;50.276;9.372;2022-11-04T02:07:42;11.40;90.30
49413;DHT22;35493;50.276;9.372;2022-11-04T02:10:10;11.40;90.20
49413;DHT22;35493;50.276;9.372;2022-11-04T02:12:37;11.40;90.20
49413;DHT22;35493;50.276;9.372;2022-11-04T02:15:19;11.40;90.10
49413;DHT22;35493;50.276;9.372;2022-11-04T02:18:04;11.40;90.00
49413;DHT22;35493;50.276;9.372;2022-11-04T02:21:08;11.40;90.30
49413;DHT22;35493;50.276;9.372;2022-11-04T02:24:18;11.40;90.20
49413;DHT22;35493;50.276;9.372;2022-11-04T02:27:24;11.40;90.20
49413;DHT22;35493;50.276;9.372;2022-11-04T02:30:09;11.40;90.10
49413;DHT22;35493;50.276;9.372;2022-11-04T02:32:53;11.30;90.20
49413;DHT22;35493;50.276;9.372;2022-11-04T02:35:30;11.40;90.20
49413;DHT22;35493;50.276;9.372;2022-11-04T02:38:06;11.30;90.10
49413;DHT22;35493;50.276;9.372;2022-11-04T02:40:40;11.40;90.00
49413;DHT22;35493;50.276;9.372;2022-11-04T02:43:14;11.30;90.10
49413;DHT22;35493;50.276;9.372;2022-11-04T02:45:46;11.30;90.00
49413;DHT22;35493;50.276;9.372;2022-11-04T02:48:19;11.30;90.00
49413;DHT22;35493;50.276;9.372;2022-11-04T02:50:52;11.30;90.20
49413;DHT22;35493;50.276;9.372;2022-11-04T02:53:25;11.30;90.10
49413;DHT22;35493;50.276;9.372;2022-11-04T02:55:56;11.30;90.10
49413;DHT22;35493;50.276;9.372;2022-11-04T02:58:28;11.30;90.10
49413;DHT22;35493;50.276;9.372;2022-11-04T03:00:59;11.30;90.20
49413;DHT22;35493;50.276;9.372;2022-11-04T03:03:28;11.30;90.30
49413;DHT22;35493;50.276;9.372;2022-11-04T03:05:57;11.20;90.30
49413;DHT22;35493;50.276;9.372;2022-11-04T03:08:30;11.30;90.20
49413;DHT22;35493;50.276;9.372;2022-11-04T03:11:01;11.30;90.10
49413;DHT22;35493;50.276;9.372;2022-11-04T03:13:33;11.30;90.20
49413;DHT22;35493;50.276;9.372;2022-11-04T03:16:08;11.30;90.10
49413;DHT22;35493;50.276;9.372;2022-11-04T03:18:40;11.30;90.00
49413;DHT22;35493;50.276;9.372;2022-11-04T03:21:11;11.30;90.10
49413;DHT22;35493;50.276;9.372;2022-11-04T03:23:39;11.20;90.20
49413;DHT22;35493;50.276;9.372;2022-11-04T03:26:08;11.20;90.20
49413;DHT22;35493;50.276;9.372;2022-11-04T03:28:41;11.30;90.10
49413;DHT22;35493;50.276;9.372;2022-11-04T03:31:17;11.30;89.90
49413;DHT22;35493;50.276;9.372;2022-11-04T03:33:47;11.30;89.90
49413;DHT22;35493;50.276;9.372;2022-11-04T03:36:14;11.30;89.90
49413;DHT22;35493;50.276;9.372;2022-11-04T03:38:41;11.30;89.90
49413;DHT22;35493;50.276;9.372;2022-11-04T03:41:16;11.30;89.80
49413;DHT22;35493;50.276;9.372;2022-11-04T03:43:44;11.20;89.80
49413;DHT22;35493;50.276;9.372;2022-11-04T03:46:12;11.30;89.90
49413;DHT22;35493;50.276;9.372;2022-11-04T03:48:39;11.20;89.90
49413;DHT22;35493;50.276;9.372;2022-11-04T03:51:11;11.20;89.80
49413;DHT22;35493;50.276;9.372;2022-11-04T03:53:38;11.20;89.80
49413;DHT22;35493;50.276;9.372;2022-11-04T03:56:37;11.20;89.80
49413;DHT22;35493;50.276;9.372;2022-11-04T03:59:22;11.20;89.80
49413;DHT22;35493;50.276;9.372;2022-11-04T04:01:57;11.20;89.70
49413;DHT22;35493;50.276;9.372;2022-11-04T04:04:29;11.20;89.70
49413;DHT22;35493;50.276;9.372;2022-11-04T04:07:01;11.20;89.70
49413;DHT22;35493;50.276;9.372;2022-11-04T04:09:36;11.20;89.60
49413;DHT22;35493;50.276;9.372;2022-11-04T04:12:09;11.20;89.50
49413;DHT22;35493;50.276;9.372;2022-11-04T04:14:42;11.10;89.60
49413;DHT22;35493;50.276;9.372;2022-11-04T04:17:17;11.10;89.70
49413;DHT22;35493;50.276;9.372;2022-11-04T04:19:48;11.10;89.60
49413;DHT22;35493;50.276;9.372;2022-11-04T04:22:19;11.10;89.40
49413;DHT22;35493;50.276;9.372;2022-11-04T04:24:49;11.10;89.40
49413;DHT22;35493;50.276;9.372;2022-11-04T04:27:35;11.10;89.50
49413;DHT22;35493;50.276;9.372;2022-11-04T04:30:05;11.00;89.50
49413;DHT22;35493;50.276;9.372;2022-11-04T04:32:37;11.00;89.60
49413;DHT22;35493;50.276;9.372;2022-11-04T04:35:06;11.00;89.50
49413;DHT22;35493;50.276;9.372;2022-11-04T04:37:54;10.90;89.40
49413;DHT22;35493;50.276;9.372;2022-11-04T04:40:43;11.00;89.40
49413;DHT22;35493;50.276;9.372;2022-11-04T04:43:32;11.00;89.30
49413;DHT22;35493;50.276;9.372;2022-11-04T04:46:16;11.00;89.20
49413;DHT22;35493;50.276;9.372;2022-11-04T04:48:44;10.90;89.20
49413;DHT22;35493;50.276;9.372;2022-11-04T04:51:11;10.80;89.20
49413;DHT22;35493;50.276;9.372;2022-11-04T04:53:38;10.80;89.30
49413;DHT22;35493;50.276;9.372;2022-11-04T04:56:05;10.90;89.20
49413;DHT22;35493;50.276;9.372;2022-11-04T04:58:32;10.90;89.00
49413;DHT22;35493;50.276;9.372;2022-11-04T05:00:59;10.80;88.90
49413;DHT22;35493;50.276;9.372;2022-11-04T05:03:27;10.70;89.00
49413;DHT22;35493;50.276;9.372;2022-11-04T05:05:58;10.70;89.00
49413;DHT22;35493;50.276;9.372;2022-11-04T05:08:25;10.70;88.80
49413;DHT22;35493;50.276;9.372;2022-11-04T05:10:52;10.70;89.00
49413;DHT22;35493;50.276;9.372;2022-11-04T05:13:19;10.70;89.00
49413;DHT22;35493;50.276;9.372;2022-11-04T05:15:54;10.70;88.80
49413;DHT22;35493;50.276;9.372;2022-11-04T05:18:21;10.70;88.60
49413;DHT22;35493;50.276;9.372;2022-11-04T05:20:48;10.60;88.70
49413;DHT22;35493;50.276;9.372;2022-11-04T05:23:16;10.60;88.70
49413;DHT22;35493;50.276;9.372;2022-11-04T05:25:43;10.60;88.70
49413;DHT22;35493;50.276;9.372;2022-11-04T05:28:10;10.60;88.80
49413;DHT22;35493;50.276;9.372;2022-11-04T05:30:37;10.60;88.80
49413;DHT22;35493;50.276;9.372;2022-11-04T05:33:04;10.60;88.80
49413;DHT22;35493;50.276;9.372;2022-11-04T05:35:31;10.50;88.70
49413;DHT22;35493;50.276;9.372;2022-11-04T05:37:58;10.50;88.60
49413;DHT22;35493;50.276;9.372;2022-11-04T05:40:28;10.40;88.70
49413;DHT22;35493;50.276;9.372;2022-11-04T05:42:57;10.50;88.70
49413;DHT22;35493;50.276;9.372;2022-11-04T05:45:24;10.40;88.70
49413;DHT22;35493;50.276;9.372;2022-11-04T05:47:56;10.40;88.80
49413;DHT22;35493;50.276;9.372;2022-11-04T05:50:23;10.40;88.70
49413;DHT22;35493;50.276;9.372;2022-11-04T05:52:50;10.30;88.70
49413;DHT22;35493;50.276;9.372;2022-11-04T05:55:17;10.30;88.70
49413;DHT22;35493;50.276;9.372;2022-11-04T05:57:45;10.30;88.70
49413;DHT22;35493;50.276;9.372;2022-11-04T06:00:13;10.30;88.70
49413;DHT22;35493;50.276;9.372;2022-11-04T06:02:40;10.30;88.60
49413;DHT22;35493;50.276;9.372;2022-11-04T06:05:07;10.30;88.60
49413;DHT22;35493;50.276;9.372;2022-11-04T06:07:35;10.30;88.60
49413;DHT22;35493;50.276;9.372;2022-11-04T06:10:02;10.30;88.60
49413;DHT22;35493;50.276;9.372;2022-11-04T06:12:29;10.20;88.60
49413;DHT22;35493;50.276;9.372;2022-11-04T06:14:57;10.30;88.60
49413;DHT22;35493;50.276;9.372;2022-11-04T06:17:24;10.20;88.60
49413;DHT22;35493;50.276;9.372;2022-11-04T06:19:51;10.20;88.70
49413;DHT22;35493;50.276;9.372;2022-11-04T06:22:18;10.20;88.70
49413;DHT22;35493;50.276;9.372;2022-11-04T06:24:45;10.20;88.70
49413;DHT22;35493;50.276;9.372;2022-11-04T06:27:12;10.20;88.70
49413;DHT22;35493;50.276;9.372;2022-11-04T06:29:39;10.20;88.70
49413;DHT22;35493;50.276;9.372;2022-11-04T06:32:08;10.20;88.70
49413;DHT22;35493;50.276;9.372;2022-11-04T06:34:35;10.20;88.70
49413;DHT22;35493;50.276;9.372;2022-11-04T06:37:03;10.20;88.80
49413;DHT22;35493;50.276;9.372;2022-11-04T06:39:29;10.20;88.80
49413;DHT22;35493;50.276;9.372;2022-11-04T06:41:56;10.20;88.80
49413;DHT22;35493;50.276;9.372;2022-11-04T06:44:23;10.20;88.80
49413;DHT22;35493;50.276;9.372;2022-11-04T06:46:50;10.20;88.80
49413;DHT22;35493;50.276;9.372;2022-11-04T06:49:20;10.20;88.80
49413;DHT22;35493;50.276;9.372;2022-11-04T06:51:49;10.20;88.80
49413;DHT22;35493;50.276;9.372;2022-11-04T06:54:17;10.20;88.80
49413;DHT22;35493;50.276;9.372;2022-11-04T06:56:44;10.20;88.90
49413;DHT22;35493;50.276;9.372;2022-11-04T06:59:15;10.20;88.80
49413;DHT22;35493;50.276;9.372;2022-11-04T07:01:42;10.20;88.80
49413;DHT22;35493;50.276;9.372;2022-11-04T07:04:09;10.20;88.80
49413;DHT22;35493;50.276;9.372;2022-11-04T07:06:42;10.10;88.80
49413;DHT22;35493;50.276;9.372;2022-11-04T07:09:10;10.20;88.90
49413;DHT22;35493;50.276;9.372;2022-11-04T07:11:37;10.20;88.90
49413;DHT22;35493;50.276;9.372;2022-11-04T07:14:04;10.20;88.90
49413;DHT22;35493;50.276;9.372;2022-11-04T07:16:33;10.20;89.00
49413;DHT22;35493;50.276;9.372;2022-11-04T07:19:00;10.20;89.00
49413;DHT22;35493;50.276;9.372;2022-11-04T07:21:33;10.20;89.00
49413;DHT22;35493;50.276;9.372;2022-11-04T07:24:02;10.20;89.00
49413;DHT22;35493;50.276;9.372;2022-11-04T07:26:29;10.20;89.00
49413;DHT22;35493;50.276;9.372;2022-11-04T07:28:58;10.20;88.90
49413;DHT22;35493;50.276;9.372;2022-11-04T07:31:29;10.20;88.90
49413;DHT22;35493;50.276;9.372;2022-11-04T07:33:56;10.20;88.90
49413;DHT22;35493;50.276;9.372;2022-11-04T07:36:23;10.20;89.00
49413;DHT22;35493;50.276;9.372;2022-11-04T07:38:50;10.20;88.90
49413;DHT22;35493;50.276;9.372;2022-11-04T07:41:19;10.20;88.90
49413;DHT22;35493;50.276;9.372;2022-11-04T07:43:49;10.20;88.90
49413;DHT22;35493;50.276;9.372;2022-11-04T07:46:17;10.20;88.90
49413;DHT22;35493;50.276;9.372;2022-11-04T07:48:44;10.20;89.00
49413;DHT22;35493;50.276;9.372;2022-11-04T07:51:13;10.20;89.00
49413;DHT22;35493;50.276;9.372;2022-11-04T07:53:41;10.30;89.00
49413;DHT22;35493;50.276;9.372;2022-11-04T07:56:10;10.30;89.00
49413;DHT22;35493;50.276;9.372;2022-11-04T07:58:39;10.40;89.10
49413;DHT22;35493;50.276;9.372;2022-11-04T08:01:08;10.30;89.10
49413;DHT22;35493;50.276;9.372;2022-11-04T08:03:35;10.30;89.10
49413;DHT22;35493;50.276;9.372;2022-11-04T08:06:04;10.40;89.20
49413;DHT22;35493;50.276;9.372;2022-11-04T08:08:32;10.40;89.20
49413;DHT22;35493;50.276;9.372;2022-11-04T08:11:01;10.40;89.10
49413;DHT22;35493;50.276;9.372;2022-11-04T08:13:32;10.40;89.00
49413;DHT22;35493;50.276;9.372;2022-11-04T08:16:02;10.50;89.00
49413;DHT22;35493;50.276;9.372;2022-11-04T08:18:30;10.50;88.90
49413;DHT22;35493;50.276;9.372;2022-11-04T08:20:57;10.50;88.80
49413;DHT22;35493;50.276;9.372;2022-11-04T08:23:24;10.60;88.80
49413;DHT22;35493;50.276;9.372;2022-11-04T08:25:51;10.60;88.80
49413;DHT22;35493;50.276;9.372;2022-11-04T08:28:19;10.60;88.80
49413;DHT22;35493;50.276;9.372;2022-11-04T08:30:53;10.60;88.90
49413;DHT22;35493;50.276;9.372;2022-11-04T08:33:22;10.60;88.90
49413;DHT22;35493;50.276;9.372;2022-11-04T08:35:49;10.70;88.90
49413;DHT22;35493;50.276;9.372;2022-11-04T08:38:16;10.70;88.80
49413;DHT22;35493;50.276;9.372;2022-11-04T08:40:44;10.70;88.90
49413;DHT22;35493;50.276;9.372;2022-11-04T08:43:11;10.70;88.70
49413;DHT22;35493;50.276;9.372;2022-11-04T08:45:38;10.80;88.70
49413;DHT22;35493;50.276;9.372;2022-11-04T08:48:05;10.80;88.60
49413;DHT22;35493;50.276;9.372;2022-11-04T08:50:34;10.90;88.60
49413;DHT22;35493;50.276;9.372;2022-11-04T08:53:01;10.90;88.50
49413;DHT22;35493;50.276;9.372;2022-11-04T08:55:28;10.90;88.40
49413;DHT22;35493;50.276;9.372;2022-11-04T08:57:55;10.90;88.40
49413;DHT22;35493;50.276;9.372;2022-11-04T09:00:22;11.00;88.40
49413;DHT22;35493;50.276;9.372;2022-11-04T09:02:49;11.00;88.30
49413;DHT22;35493;50.276;9.372;2022-11-04T09:05:16;11.00;88.20
49413;DHT22;35493;50.276;9.372;2022-11-04T09:07:45;11.10;88.20
49413;DHT22;35493;50.276;9.372;2022-11-04T09:10:12;11.10;88.20
49413;DHT22;35493;50.276;9.372;2022-11-04T09:12:41;11.10;88.10
49413;DHT22;35493;50.276;9.372;2022-11-04T09:15:09;11.10;88.00
49413;DHT22;35493;50.276;9.372;2022-11-04T09:17:36;11.20;87.90
49413;DHT22;35493;50.276;9.372;2022-11-04T09:20:04;11.20;87.90
49413;DHT22;35493;50.276;9.372;2022-11-04T09:22:31;11.20;87.70
49413;DHT22;35493;50.276;9.372;2022-11-04T09:25:00;11.20;87.70
49413;DHT22;35493;50.276;9.372;2022-11-04T09:27:28;11.30;87.50
49413;DHT22;35493;50.276;9.372;2022-11-04T09:29:55;11.40;87.50
49413;DHT22;35493;50.276;9.372;2022-11-04T09:32:22;11.40;87.50
49413;DHT22;35493;50.276;9.372;2022-11-04T09:34:49;11.40;87.30
49413;DHT22;35493;50.276;9.372;2022-11-04T09:37:15;11.50;87.30
49413;DHT22;35493;50.276;9.372;2022-11-04T09:39:42;11.50;87.00
49413;DHT22;35493;50.276;9.372;2022-11-04T09:42:24;11.50;87.00
49413;DHT22;35493;50.276;9.372;2022-11-04T09:44:57;11.60;87.00
49413;DHT22;35493;50.276;9.372;2022-11-04T09:47:27;11.60;86.90
49413;DHT22;35493;50.276;9.372;2022-11-04T09:49:58;11.70;86.80
49413;DHT22;35493;50.276;9.372;2022-11-04T09:52:28;11.70;86.80
49413;DHT22;35493;50.276;9.372;2022-11-04T09:55:00;11.70;86.70
49413;DHT22;35493;50.276;9.372;2022-11-04T09:57:31;11.70;86.50
49413;DHT22;35493;50.276;9.372;2022-11-04T09:59:59;11.80;86.50
49413;DHT22;35493;50.276;9.372;2022-11-04T10:02:52;11.80;86.20
49413;DHT22;35493;50.276;9.372;2022-11-04T10:05:31;11.80;86.00
49413;DHT22;35493;50.276;9.372;2022-11-04T10:08:22;11.90;86.00
49413;DHT22;35493;50.276;9.372;2022-11-04T10:10:58;11.90;85.90
49413;DHT22;35493;50.276;9.372;2022-11-04T10:13:37;12.00;85.60
49413;DHT22;35493;50.276;9.372;2022-11-04T10:16:16;12.00;85.80
49413;DHT22;35493;50.276;9.372;2022-11-04T10:19:13;12.00;85.60
49413;DHT22;35493;50.276;9.372;2022-11-04T10:21:52;12.00;85.60
49413;DHT22;35493;50.276;9.372;2022-11-04T10:24:26;12.10;85.50
49413;DHT22;35493;50.276;9.372;2022-11-04T10:27:02;12.00;85.60
49413;DHT22;35493;50.276;9.372;2022-11-04T10:29:35;12.00;84.80
49413;DHT22;35493;50.276;9.372;2022-11-04T10:32:10;12.10;84.90
49413;DHT22;35493;50.276;9.372;2022-11-04T10:34:41;12.10;84.80
49413;DHT22;35493;50.276;9.372;2022-11-04T10:37:10;12.10;84.60
49413;DHT22;35493;50.276;9.372;2022-11-04T10:39:42;12.20;85.00
49413;DHT22;35493;50.276;9.372;2022-11-04T10:42:10;12.10;84.70
49413;DHT22;35493;50.276;9.372;2022-11-04T10:44:39;12.10;84.90
49413;DHT22;35493;50.276;9.372;2022-11-04T10:47:17;12.10;84.30
49413;DHT22;35493;50.276;9.372;2022-11-04T10:49:56;12.20;84.70
49413;DHT22;35493;50.276;9.372;2022-11-04T10:52:25;12.20;84.00
49413;DHT22;35493;50.276;9.372;2022-11-04T10:54:52;12.20;83.90
49413;DHT22;35493;50.276;9.372;2022-11-04T10:57:21;12.20;84.00
49413;DHT22;35493;50.276;9.372;2022-11-04T10:59:53;12.40;83.50
49413;DHT22;35493;50.276;9.372;2022-11-04T11:02:42;12.50;83.50
49413;DHT22;35493;50.276;9.372;2022-11-04T11:05:20;12.60;83.20
49413;DHT22;35493;50.276;9.372;2022-11-04T11:07:50;12.60;83.10
49413;DHT22;35493;50.276;9.372;2022-11-04T11:10:20;12.60;83.30
49413;DHT22;35493;50.276;9.372;2022-11-04T11:12:53;12.50;83.10
49413;DHT22;35493;50.276;9.372;2022-11-04T11:15:28;12.60;82.80
49413;DHT22;35493;50.276;9.372;2022-11-04T11:18:00;12.60;82.90
49413;DHT22;35493;50.276;9.372;2022-11-04T11:20:29;12.60;82.70
49413;DHT22;35493;50.276;9.372;2022-11-04T11:22:58;12.60;82.20
49413;DHT22;35493;50.276;9.372;2022-11-04T11:25:27;12.60;82.30
49413;DHT22;35493;50.276;9.372;2022-11-04T11:27:56;12.60;81.90
49413;DHT22;35493;50.276;9.372;2022-11-04T11:30:28;12.60;82.40
49413;DHT22;35493;50.276;9.372;2022-11-04T11:33:01;12.60;81.90
49413;DHT22;35493;50.276;9.372;2022-11-04T11:35:33;12.60;82.00
49413;DHT22;35493;50.276;9.372;2022-11-04T11:38:14;12.60;82.00
49413;DHT22;35493;50.276;9.372;2022-11-04T11:40:44;12.60;81.90
49413;DHT22;35493;50.276;9.372;2022-11-04T11:43:21;12.60;82.20
49413;DHT22;35493;50.276;9.372;2022-11-04T11:45:50;12.70;81.40
49413;DHT22;35493;50.276;9.372;2022-11-04T11:48:30;12.70;82.00
49413;DHT22;35493;50.276;9.372;2022-11-04T11:50:58;12.70;81.20
49413;DHT22;35493;50.276;9.372;2022-11-04T11:53:28;12.70;81.30
49413;DHT22;35493;50.276;9.372;2022-11-04T11:56:05;12.70;81.30
49413;DHT22;35493;50.276;9.372;2022-11-04T11:58:42;12.80;81.40
49413;DHT22;35493;50.276;9.372;2022-11-04T12:01:16;12.80;81.20
49413;DHT22;35493;50.276;9.372;2022-11-04T12:03:45;12.70;81.20
49413;DHT22;35493;50.276;9.372;2022-11-04T12:06:25;12.80;81.00
49413;DHT22;35493;50.276;9.372;2022-11-04T12:09:08;12.70;81.30
49413;DHT22;35493;50.276;9.372;2022-11-04T12:11:48;12.60;81.50
49413;DHT22;35493;50.276;9.372;2022-11-04T12:14:24;12.60;81.30
49413;DHT22;35493;50.276;9.372;2022-11-04T12:17:03;12.50;81.60
49413;DHT22;35493;50.276;9.372;2022-11-04T12:19:50;12.50;81.30
49413;DHT22;35493;50.276;9.372;2022-11-04T12:22:31;12.50;81.60
49413;DHT22;35493;50.276;9.372;2022-11-04T12:25:07;12.40;82.20
49413;DHT22;35493;50.276;9.372;2022-11-04T12:27:42;12.40;82.10
49413;DHT22;35493;50.276;9.372;2022-11-04T12:30:13;12.30;82.20
49413;DHT22;35493;50.276;9.372;2022-11-04T12:32:56;12.40;82.20
49413;DHT22;35493;50.276;9.372;2022-11-04T12:35:39;12.40;83.20
49413;DHT22;35493;50.276;9.372;2022-11-04T12:38:21;12.30;82.90
49413;DHT22;35493;50.276;9.372;2022-11-04T12:40:57;12.30;82.40
49413;DHT22;35493;50.276;9.372;2022-11-04T12:43:36;12.30;83.40
49413;DHT22;35493;50.276;9.372;2022-11-04T12:46:12;12.30;82.70
49413;DHT22;35493;50.276;9.372;2022-11-04T12:48:52;12.30;82.60
49413;DHT22;35493;50.276;9.372;2022-11-04T12:51:31;12.30;82.90
49413;DHT22;35493;50.276;9.372;2022-11-04T12:54:12;12.30;82.90
49413;DHT22;35493;50.276;9.372;2022-11-04T12:56:42;12.30;83.00
49413;DHT22;35493;50.276;9.372;2022-11-04T12:59:31;12.20;83.20
49413;DHT22;35493;50.276;9.372;2022-11-04T13:02:09;12.30;83.40
49413;DHT22;35493;50.276;9.372;2022-11-04T13:04:47;12.30;83.40
49413;DHT22;35493;50.276;9.372;2022-11-04T13:07:19;12.30;83.50
49413;DHT22;35493;50.276;9.372;2022-11-04T13:09:51;12.30;83.50
49413;DHT22;35493;50.276;9.372;2022-11-04T13:12:21;12.40;83.40
49413;DHT22;35493;50.276;9.372;2022-11-04T13:14:52;12.30;83.20
49413;DHT22;35493;50.276;9.372;2022-11-04T13:17:26;12.30;83.30
49413;DHT22;35493;50.276;9.372;2022-11-04T13:20:00;12.30;84.00
49413;DHT22;35493;50.276;9.372;2022-11-04T13:22:31;12.30;83.20
49413;DHT22;35493;50.276;9.372;2022-11-04T13:25:00;12.30;83.20
49413;DHT22;35493;50.276;9.372;2022-11-04T13:27:32;12.30;83.20
49413;DHT22;35493;50.276;9.372;2022-11-04T13:30:08;12.30;83.20
49413;DHT22;35493;50.276;9.372;2022-11-04T13:32:48;12.30;83.10
49413;DHT22;35493;50.276;9.372;2022-11-04T13:35:22;12.30;83.20
49413;DHT22;35493;50.276;9.372;2022-11-04T13:37:55;12.30;83.30
49413;DHT22;35493;50.276;9.372;2022-11-04T13:40:26;12.30;83.40
49413;DHT22;35493;50.276;9.372;2022-11-04T13:46:18;12.30;83.30
49413;DHT22;35493;50.276;9.372;2022-11-04T13:48:58;12.30;83.40
49413;DHT22;35493;50.276;9.372;2022-11-04T13:51:38;12.30;83.30
49413;DHT22;35493;50.276;9.372;2022-11-04T13:54:07;12.30;83.10
49413;DHT22;35493;50.276;9.372;2022-11-04T13:56:48;12.30;83.20
49413;DHT22;35493;50.276;9.372;2022-11-04T13:59:21;12.30;83.30
49413;DHT22;35493;50.276;9.372;2022-11-04T14:02:31;12.30;83.40
49413;DHT22;35493;50.276;9.372;2022-11-04T14:08:18;12.30;83.20
49413;DHT22;35493;50.276;9.372;2022-11-04T14:10:59;12.30;83.30
49413;DHT22;35493;50.276;9.372;2022-11-04T14:13:41;12.30;83.30
49413;DHT22;35493;50.276;9.372;2022-11-04T14:16:09;12.30;83.40
49413;DHT22;35493;50.276;9.372;2022-11-04T14:18:43;12.30;83.40
49413;DHT22;35493;50.276;9.372;2022-11-04T14:21:11;12.30;83.20
49413;DHT22;35493;50.276;9.372;2022-11-04T14:23:40;12.30;83.30
49413;DHT22;35493;50.276;9.372;2022-11-04T14:26:09;12.30;83.20
49413;DHT22;35493;50.276;9.372;2022-11-04T14:28:42;12.30;83.40
49413;DHT22;35493;50.276;9.372;2022-11-04T14:31:10;12.30;83.40
49413;DHT22;35493;50.276;9.372;2022-11-04T14:33:49;12.30;83.50
49413;DHT22;35493;50.276;9.372;2022-11-04T14:36:32;12.30;83.70
49413;DHT22;35493;50.276;9.372;2022-11-04T14:39:03;12.20;83.60
49413;DHT22;35493;50.276;9.372;2022-11-04T14:41:50;12.30;83.50
49413;DHT22;35493;50.276;9.372;2022-11-04T14:44:20;12.20;83.70
49413;DHT22;35493;50.276;9.372;2022-11-04T14:46:53;12.20;83.70
49413;DHT22;35493;50.276;9.372;2022-11-04T14:49:36;12.20;83.60
49413;DHT22;35493;50.276;9.372;2022-11-04T14:52:14;12.20;83.60
49413;DHT22;35493;50.276;9.372;2022-11-04T14:54:42;12.20;83.70
49413;DHT22;35493;50.276;9.372;2022-11-04T14:57:13;12.20;83.70
49413;DHT22;35493;50.276;9.372;2022-11-04T14:59:40;12.20;83.70
49413;DHT22;35493;50.276;9.372;2022-11-04T15:02:17;12.20;83.80
49413;DHT22;35493;50.276;9.372;2022-11-04T15:04:49;12.20;83.90
49413;DHT22;35493;50.276;9.372;2022-11-04T15:07:31;12.10;83.90
49413;DHT22;35493;50.276;9.372;2022-11-04T15:10:00;12.10;83.90
49413;DHT22;35493;50.276;9.372;2022-11-04T15:12:29;12.10;84.10
49413;DHT22;35493;50.276;9.372;2022-11-04T15:15:31;12.10;84.10
49413;DHT22;35493;50.276;9.372;2022-11-04T15:18:03;12.10;84.30
49413;DHT22;35493;50.276;9.372;2022-11-04T15:20:35;12.00;84.50
49413;DHT22;35493;50.276;9.372;2022-11-04T15:23:06;12.10;84.30
49413;DHT22;35493;50.276;9.372;2022-11-04T15:25:33;12.00;84.30
49413;DHT22;35493;50.276;9.372;2022-11-04T15:28:00;12.10;84.80
49413;DHT22;35493;50.276;9.372;2022-11-04T15:30:29;12.10;84.60
49413;DHT22;35493;50.276;9.372;2022-11-04T15:32:58;12.10;84.70
49413;DHT22;35493;50.276;9.372;2022-11-04T15:35:27;12.00;84.70
49413;DHT22;35493;50.276;9.372;2022-11-04T15:37:57;12.00;84.80
49413;DHT22;35493;50.276;9.372;2022-11-04T15:40:26;11.90;85.00
49413;DHT22;35493;50.276;9.372;2022-11-04T15:42:55;11.90;85.30
49413;DHT22;35493;50.276;9.372;2022-11-04T15:45:33;11.90;85.40
49413;DHT22;35493;50.276;9.372;2022-11-04T15:48:24;11.90;85.40
49413;DHT22;35493;50.276;9.372;2022-11-04T15:51:09;11.90;85.40
49413;DHT22;35493;50.276;9.372;2022-11-04T15:53:49;11.90;85.60
49413;DHT22;35493;50.276;9.372;2022-11-04T15:56:21;11.80;85.70
49413;DHT22;35493;50.276;9.372;2022-11-04T15:58:49;11.80;85.80
49413;DHT22;35493;50.276;9.372;2022-11-04T16:01:17;11.70;85.90
49413;DHT22;35493;50.276;9.372;2022-11-04T16:03:53;11.70;85.90
49413;DHT22;35493;50.276;9.372;2022-11-04T16:06:35;11.70;86.00
49413;DHT22;35493;50.276;9.372;2022-11-04T16:09:06;11.70;86.10